sensor_id;sensor_type;location;lat;lon;timestamp;P1;durP1;ratioP1;P2;durP2;ratioP2
8480;SDS011;4277;51.354;6.740;2023-04-01T00:00:50;4.30;;;1.10;;
8480;SDS011;4277;51.354;6.740;2023-04-01T00:03:17;5.47;;;1.30;;
8480;SDS011;4277;51.354;6.740;2023-04-01T00:05:43;3.00;;;0.83;;
8480;SDS011;4277;51.354;6.740;2023-04-01T00:08:08;1.37;;;0.73;;
8480;SDS011;4277;51.354;6.740;2023-04-01T00:10:34;2.80;;;0.97;;
8480;SDS011;4277;51.354;6.740;2023-04-01T00:13:00;3.33;;;1.00;;
8480;SDS011;4277;51.354;6.740;2023-04-01T00:15:26;3.97;;;0.80;;
8480;SDS011;4277;51.354;6.740;2023-04-01T00:17:52;1.53;;;0.70;;
8480;SDS011;4277;51.354;6.740;2023-04-01T00:20:19;3.17;;;0.90;;
8480;SDS011;4277;51.354;6.740;2023-04-01T00:22:45;2.40;;;0.63;;
8480;SDS011;4277;51.354;6.740;2023-04-01T00:25:11;2.30;;;0.90;;
8480;SDS011;4277;51.354;6.740;2023-04-01T00:27:37;2.57;;;0.73;;
8480;SDS011;4277;51.354;6.740;2023-04-01T00:30:03;1.87;;;0.87;;
8480;SDS011;4277;51.354;6.740;2023-04-01T00:32:29;3.90;;;0.80;;
8480;SDS011;4277;51.354;6.740;2023-04-01T00:34:56;3.93;;;0.90;;
8480;SDS011;4277;51.354;6.740;2023-04-01T00:37:24;3.27;;;1.10;;
8480;SDS011;4277;51.354;6.740;2023-04-01T00:39:50;2.80;;;0.70;;
8480;SDS011;4277;51.354;6.740;2023-04-01T00:42:16;1.97;;;0.70;;
8480;SDS011;4277;51.354;6.740;2023-04-01T00:44:44;3.97;;;0.70;;
8480;SDS011;4277;51.354;6.740;2023-04-01T00:47:10;2.80;;;0.77;;
8480;SDS011;4277;51.354;6.740;2023-04-01T00:49:37;4.70;;;0.70;;
8480;SDS011;4277;51.354;6.740;2023-04-01T00:52:05;1.83;;;0.80;;
8480;SDS011;4277;51.354;6.740;2023-04-01T00:54:32;2.37;;;0.80;;
8480;SDS011;4277;51.354;6.740;2023-04-01T00:57:00;2.30;;;0.80;;
8480;SDS011;4277;51.354;6.740;2023-04-01T00:59:29;3.13;;;1.00;;
8480;SDS011;4277;51.354;6.740;2023-04-01T01:01:55;2.53;;;0.90;;
8480;SDS011;4277;51.354;6.740;2023-04-01T01:04:23;1.60;;;0.50;;
8480;SDS011;4277;51.354;6.740;2023-04-01T01:09:42;3.40;;;1.13;;
8480;SDS011;4277;51.354;6.740;2023-04-01T01:12:13;0.97;;;0.63;;
8480;SDS011;4277;51.354;6.740;2023-04-01T01:17:14;1.47;;;0.60;;
8480;SDS011;4277;51.354;6.740;2023-04-01T01:19:47;1.93;;;0.73;;
8480;SDS011;4277;51.354;6.740;2023-04-01T01:27:11;2.83;;;0.67;;
8480;SDS011;4277;51.354;6.740;2023-04-01T01:29:59;1.10;;;0.60;;
8480;SDS011;4277;51.354;6.740;2023-04-01T01:37:40;2.13;;;0.67;;
8480;SDS011;4277;51.354;6.740;2023-04-01T01:40:09;2.07;;;0.90;;
8480;SDS011;4277;51.354;6.740;2023-04-01T01:42:37;1.83;;;0.80;;
8480;SDS011;4277;51.354;6.740;2023-04-01T01:45:04;2.70;;;0.70;;
8480;SDS011;4277;51.354;6.740;2023-04-01T01:47:31;0.93;;;0.50;;
8480;SDS011;4277;51.354;6.740;2023-04-01T01:49:58;1.13;;;0.50;;
8480;SDS011;4277;51.354;6.740;2023-04-01T01:52:27;1.50;;;0.60;;
8480;SDS011;4277;51.354;6.740;2023-04-01T01:54:54;1.77;;;0.70;;
8480;SDS011;4277;51.354;6.740;2023-04-01T01:57:23;2.57;;;0.87;;
8480;SDS011;4277;51.354;6.740;2023-04-01T01:59:49;1.40;;;0.60;;
8480;SDS011;4277;51.354;6.740;2023-04-01T02:02:17;1.90;;;0.60;;
8480;SDS011;4277;51.354;6.740;2023-04-01T02:04:44;2.20;;;0.70;;
8480;SDS011;4277;51.354;6.740;2023-04-01T02:07:13;3.90;;;0.80;;
8480;SDS011;4277;51.354;6.740;2023-04-01T02:09:41;3.93;;;0.90;;
8480;SDS011;4277;51.354;6.740;2023-04-01T02:12:08;1.53;;;0.70;;
8480;SDS011;4277;51.354;6.740;2023-04-01T02:14:43;1.97;;;0.77;;
8480;SDS011;4277;51.354;6.740;2023-04-01T02:17:12;1.90;;;0.70;;
8480;SDS011;4277;51.354;6.740;2023-04-01T02:19:40;2.10;;;0.60;;
8480;SDS011;4277;51.354;6.740;2023-04-01T02:22:10;2.53;;;0.67;;
8480;SDS011;4277;51.354;6.740;2023-04-01T02:24:38;2.00;;;0.57;;
8480;SDS011;4277;51.354;6.740;2023-04-01T02:27:05;1.83;;;0.60;;
8480;SDS011;4277;51.354;6.740;2023-04-01T02:29:31;1.20;;;0.60;;
8480;SDS011;4277;51.354;6.740;2023-04-01T02:31:57;1.03;;;0.60;;
8480;SDS011;4277;51.354;6.740;2023-04-01T02:34:23;1.43;;;0.60;;
8480;SDS011;4277;51.354;6.740;2023-04-01T02:36:50;0.93;;;0.47;;
8480;SDS011;4277;51.354;6.740;2023-04-01T02:39:16;2.27;;;0.60;;
8480;SDS011;4277;51.354;6.740;2023-04-01T02:41:43;2.00;;;0.87;;
8480;SDS011;4277;51.354;6.740;2023-04-01T02:44:10;1.90;;;0.73;;
8480;SDS011;4277;51.354;6.740;2023-04-01T02:46:36;2.13;;;0.70;;
8480;SDS011;4277;51.354;6.740;2023-04-01T02:49:04;1.97;;;0.80;;
8480;SDS011;4277;51.354;6.740;2023-04-01T02:51:30;2.77;;;1.00;;
8480;SDS011;4277;51.354;6.740;2023-04-01T02:53:56;3.30;;;0.77;;
8480;SDS011;4277;51.354;6.740;2023-04-01T02:56:22;2.60;;;0.80;;
8480;SDS011;4277;51.354;6.740;2023-04-01T02:58:48;1.53;;;0.90;;
8480;SDS011;4277;51.354;6.740;2023-04-01T03:01:14;2.83;;;0.90;;
8480;SDS011;4277;51.354;6.740;2023-04-01T03:03:40;2.67;;;0.90;;
8480;SDS011;4277;51.354;6.740;2023-04-01T03:06:10;1.73;;;0.70;;
8480;SDS011;4277;51.354;6.740;2023-04-01T03:08:36;1.67;;;0.60;;
8480;SDS011;4277;51.354;6.740;2023-04-01T03:11:02;1.57;;;0.90;;
8480;SDS011;4277;51.354;6.740;2023-04-01T03:13:28;2.60;;;0.97;;
8480;SDS011;4277;51.354;6.740;2023-04-01T03:15:54;1.73;;;0.83;;
8480;SDS011;4277;51.354;6.740;2023-04-01T03:18:20;3.07;;;0.70;;
8480;SDS011;4277;51.354;6.740;2023-04-01T03:20:46;1.10;;;0.90;;
8480;SDS011;4277;51.354;6.740;2023-04-01T03:23:12;2.57;;;0.90;;
8480;SDS011;4277;51.354;6.740;2023-04-01T03:25:38;2.77;;;0.77;;
8480;SDS011;4277;51.354;6.740;2023-04-01T03:28:04;2.30;;;0.90;;
8480;SDS011;4277;51.354;6.740;2023-04-01T03:30:30;2.37;;;0.70;;
8480;SDS011;4277;51.354;6.740;2023-04-01T03:32:57;1.73;;;0.70;;
8480;SDS011;4277;51.354;6.740;2023-04-01T03:35:24;0.93;;;0.87;;
8480;SDS011;4277;51.354;6.740;2023-04-01T03:37:50;1.90;;;1.00;;
8480;SDS011;4277;51.354;6.740;2023-04-01T03:40:16;2.70;;;1.10;;
8480;SDS011;4277;51.354;6.740;2023-04-01T03:42:42;1.63;;;0.70;;
8480;SDS011;4277;51.354;6.740;2023-04-01T03:45:08;1.70;;;0.93;;
8480;SDS011;4277;51.354;6.740;2023-04-01T03:47:34;2.23;;;0.90;;
8480;SDS011;4277;51.354;6.740;2023-04-01T03:50:01;1.37;;;0.80;;
8480;SDS011;4277;51.354;6.740;2023-04-01T03:52:27;1.17;;;0.70;;
8480;SDS011;4277;51.354;6.740;2023-04-01T03:54:53;2.83;;;0.90;;
8480;SDS011;4277;51.354;6.740;2023-04-01T03:57:19;2.90;;;0.70;;
8480;SDS011;4277;51.354;6.740;2023-04-01T03:59:45;0.70;;;0.67;;
8480;SDS011;4277;51.354;6.740;2023-04-01T04:02:10;0.73;;;0.70;;
8480;SDS011;4277;51.354;6.740;2023-04-01T04:04:36;2.77;;;0.93;;
8480;SDS011;4277;51.354;6.740;2023-04-01T04:07:02;2.47;;;1.00;;
8480;SDS011;4277;51.354;6.740;2023-04-01T04:09:30;3.13;;;0.80;;
8480;SDS011;4277;51.354;6.740;2023-04-01T04:11:56;1.23;;;0.70;;
8480;SDS011;4277;51.354;6.740;2023-04-01T04:14:22;1.27;;;0.80;;
8480;SDS011;4277;51.354;6.740;2023-04-01T04:16:48;1.13;;;0.77;;
8480;SDS011;4277;51.354;6.740;2023-04-01T04:19:14;2.63;;;1.00;;
8480;SDS011;4277;51.354;6.740;2023-04-01T04:21:41;1.67;;;0.80;;
8480;SDS011;4277;51.354;6.740;2023-04-01T04:24:07;0.80;;;0.80;;
8480;SDS011;4277;51.354;6.740;2023-04-01T04:26:33;0.97;;;0.80;;
8480;SDS011;4277;51.354;6.740;2023-04-01T04:28:59;1.30;;;0.87;;
8480;SDS011;4277;51.354;6.740;2023-04-01T04:31:26;2.43;;;1.00;;
8480;SDS011;4277;51.354;6.740;2023-04-01T04:33:52;2.73;;;1.00;;
8480;SDS011;4277;51.354;6.740;2023-04-01T04:36:20;1.27;;;0.87;;
8480;SDS011;4277;51.354;6.740;2023-04-01T04:38:46;1.80;;;0.83;;
8480;SDS011;4277;51.354;6.740;2023-04-01T04:41:13;1.23;;;0.90;;
8480;SDS011;4277;51.354;6.740;2023-04-01T04:43:39;3.10;;;1.20;;
8480;SDS011;4277;51.354;6.740;2023-04-01T04:46:06;1.17;;;0.97;;
8480;SDS011;4277;51.354;6.740;2023-04-01T04:48:32;1.43;;;1.20;;
8480;SDS011;4277;51.354;6.740;2023-04-01T04:50:59;3.17;;;1.10;;
8480;SDS011;4277;51.354;6.740;2023-04-01T04:53:25;1.87;;;1.10;;
8480;SDS011;4277;51.354;6.740;2023-04-01T04:55:51;1.10;;;1.00;;
8480;SDS011;4277;51.354;6.740;2023-04-01T04:58:17;1.67;;;1.20;;
8480;SDS011;4277;51.354;6.740;2023-04-01T05:00:43;1.53;;;1.20;;
8480;SDS011;4277;51.354;6.740;2023-04-01T05:03:10;3.00;;;1.50;;
8480;SDS011;4277;51.354;6.740;2023-04-01T05:05:36;2.00;;;1.40;;
8480;SDS011;4277;51.354;6.740;2023-04-01T05:08:03;1.50;;;1.40;;
8480;SDS011;4277;51.354;6.740;2023-04-01T05:10:28;1.90;;;1.40;;
8480;SDS011;4277;51.354;6.740;2023-04-01T05:12:55;1.70;;;1.40;;
8480;SDS011;4277;51.354;6.740;2023-04-01T05:15:21;2.27;;;1.70;;
8480;SDS011;4277;51.354;6.740;2023-04-01T05:17:47;1.60;;;1.50;;
8480;SDS011;4277;51.354;6.740;2023-04-01T05:20:13;1.50;;;1.30;;
8480;SDS011;4277;51.354;6.740;2023-04-01T05:22:40;2.03;;;1.50;;
8480;SDS011;4277;51.354;6.740;2023-04-01T05:25:06;1.80;;;1.50;;
8480;SDS011;4277;51.354;6.740;2023-04-01T05:27:32;2.07;;;1.70;;
8480;SDS011;4277;51.354;6.740;2023-04-01T05:29:58;1.90;;;1.70;;
8480;SDS011;4277;51.354;6.740;2023-04-01T05:32:24;1.73;;;1.50;;
8480;SDS011;4277;51.354;6.740;2023-04-01T05:34:51;1.73;;;1.63;;
8480;SDS011;4277;51.354;6.740;2023-04-01T05:37:17;2.83;;;1.80;;
8480;SDS011;4277;51.354;6.740;2023-04-01T05:39:43;2.20;;;2.00;;
8480;SDS011;4277;51.354;6.740;2023-04-01T05:42:09;1.93;;;1.83;;
8480;SDS011;4277;51.354;6.740;2023-04-01T05:44:35;2.10;;;1.90;;
8480;SDS011;4277;51.354;6.740;2023-04-01T05:47:02;2.33;;;2.00;;
8480;SDS011;4277;51.354;6.740;2023-04-01T05:49:28;3.33;;;2.03;;
8480;SDS011;4277;51.354;6.740;2023-04-01T05:51:54;3.23;;;2.50;;
8480;SDS011;4277;51.354;6.740;2023-04-01T05:54:20;2.37;;;2.00;;
8480;SDS011;4277;51.354;6.740;2023-04-01T05:56:46;2.43;;;2.20;;
8480;SDS011;4277;51.354;6.740;2023-04-01T05:59:12;2.27;;;2.07;;
8480;SDS011;4277;51.354;6.740;2023-04-01T06:01:38;2.97;;;2.20;;
8480;SDS011;4277;51.354;6.740;2023-04-01T06:04:04;2.87;;;2.40;;
8480;SDS011;4277;51.354;6.740;2023-04-01T06:06:31;3.17;;;2.50;;
8480;SDS011;4277;51.354;6.740;2023-04-01T06:08:58;2.50;;;2.30;;
8480;SDS011;4277;51.354;6.740;2023-04-01T06:22:13;3.00;;;2.80;;
8480;SDS011;4277;51.354;6.740;2023-04-01T06:24:49;4.13;;;3.40;;
8480;SDS011;4277;51.354;6.740;2023-04-01T06:37:39;4.57;;;3.10;;
8480;SDS011;4277;51.354;6.740;2023-04-01T06:40:22;4.00;;;3.37;;
8480;SDS011;4277;51.354;6.740;2023-04-01T06:43:05;3.57;;;3.17;;
8480;SDS011;4277;51.354;6.740;2023-04-01T06:46:19;4.27;;;3.40;;
8480;SDS011;4277;51.354;6.740;2023-04-01T06:49:15;5.07;;;3.73;;
8480;SDS011;4277;51.354;6.740;2023-04-01T06:51:33;4.13;;;3.40;;
8480;SDS011;4277;51.354;6.740;2023-04-01T06:54:07;4.97;;;3.20;;
8480;SDS011;4277;51.354;6.740;2023-04-01T06:56:34;6.03;;;3.40;;
8480;SDS011;4277;51.354;6.740;2023-04-01T06:59:03;3.70;;;3.40;;
8480;SDS011;4277;51.354;6.740;2023-04-01T07:04:06;3.60;;;3.30;;
8480;SDS011;4277;51.354;6.740;2023-04-01T07:06:36;4.00;;;3.30;;
8480;SDS011;4277;51.354;6.740;2023-04-01T07:09:05;3.00;;;2.80;;
8480;SDS011;4277;51.354;6.740;2023-04-01T07:11:33;4.97;;;3.10;;
8480;SDS011;4277;51.354;6.740;2023-04-01T07:21:28;3.57;;;3.27;;
8480;SDS011;4277;51.354;6.740;2023-04-01T07:23:56;4.10;;;3.70;;
8480;SDS011;4277;51.354;6.740;2023-04-01T07:26:23;4.70;;;4.30;;
8480;SDS011;4277;51.354;6.740;2023-04-01T07:28:50;4.20;;;3.80;;
8480;SDS011;4277;51.354;6.740;2023-04-01T07:36:13;4.27;;;3.87;;
8480;SDS011;4277;51.354;6.740;2023-04-01T07:38:49;4.10;;;3.80;;
8480;SDS011;4277;51.354;6.740;2023-04-01T07:41:27;4.27;;;3.90;;
8480;SDS011;4277;51.354;6.740;2023-04-01T07:52:01;4.70;;;4.30;;
8480;SDS011;4277;51.354;6.740;2023-04-01T07:54:50;4.60;;;4.20;;
8480;SDS011;4277;51.354;6.740;2023-04-01T07:57:19;4.60;;;4.20;;
8480;SDS011;4277;51.354;6.740;2023-04-01T08:05:11;5.20;;;4.70;;
8480;SDS011;4277;51.354;6.740;2023-04-01T08:07:43;5.00;;;4.60;;
8480;SDS011;4277;51.354;6.740;2023-04-01T08:10:13;4.90;;;4.50;;
8480;SDS011;4277;51.354;6.740;2023-04-01T08:12:46;4.80;;;4.40;;
8480;SDS011;4277;51.354;6.740;2023-04-01T08:15:21;4.80;;;4.40;;
8480;SDS011;4277;51.354;6.740;2023-04-01T08:23:26;5.40;;;4.90;;
8480;SDS011;4277;51.354;6.740;2023-04-01T08:25:55;5.60;;;5.10;;
8480;SDS011;4277;51.354;6.740;2023-04-01T08:28:24;4.70;;;4.30;;
8480;SDS011;4277;51.354;6.740;2023-04-01T08:30:54;4.47;;;4.17;;
8480;SDS011;4277;51.354;6.740;2023-04-01T08:33:24;4.80;;;4.40;;
8480;SDS011;4277;51.354;6.740;2023-04-01T08:38:24;4.83;;;4.43;;
8480;SDS011;4277;51.354;6.740;2023-04-01T08:40:57;4.63;;;4.23;;
8480;SDS011;4277;51.354;6.740;2023-04-01T08:43:28;4.90;;;4.40;;
8480;SDS011;4277;51.354;6.740;2023-04-01T08:46:13;4.67;;;4.27;;
8480;SDS011;4277;51.354;6.740;2023-04-01T08:53:51;5.53;;;5.10;;
8480;SDS011;4277;51.354;6.740;2023-04-01T08:56:58;5.87;;;4.83;;
8480;SDS011;4277;51.354;6.740;2023-04-01T09:06:50;7.03;;;6.33;;
8480;SDS011;4277;51.354;6.740;2023-04-01T09:09:43;6.90;;;6.30;;
8480;SDS011;4277;51.354;6.740;2023-04-01T09:14:56;7.03;;;6.43;;
8480;SDS011;4277;51.354;6.740;2023-04-01T09:20:00;8.03;;;7.33;;
8480;SDS011;4277;51.354;6.740;2023-04-01T09:22:37;7.70;;;6.93;;
8480;SDS011;4277;51.354;6.740;2023-04-01T09:27:57;8.27;;;7.20;;
8480;SDS011;4277;51.354;6.740;2023-04-01T09:30:33;8.13;;;7.33;;
8480;SDS011;4277;51.354;6.740;2023-04-01T09:38:35;8.53;;;7.70;;
8480;SDS011;4277;51.354;6.740;2023-04-01T09:46:16;8.67;;;7.87;;
8480;SDS011;4277;51.354;6.740;2023-04-01T09:52:23;10.20;;;7.97;;
8480;SDS011;4277;51.354;6.740;2023-04-01T09:54:36;9.10;;;8.10;;
8480;SDS011;4277;51.354;6.740;2023-04-01T10:10:42;9.70;;;8.70;;
8480;SDS011;4277;51.354;6.740;2023-04-01T10:20:31;12.50;;;9.40;;
8480;SDS011;4277;51.354;6.740;2023-04-01T10:25:34;10.10;;;9.07;;
8480;SDS011;4277;51.354;6.740;2023-04-01T10:33:19;10.50;;;8.67;;
8480;SDS011;4277;51.354;6.740;2023-04-01T10:51:45;10.87;;;9.13;;
8480;SDS011;4277;51.354;6.740;2023-04-01T10:57:40;11.33;;;9.27;;
8480;SDS011;4277;51.354;6.740;2023-04-01T11:15:26;11.03;;;9.90;;
8480;SDS011;4277;51.354;6.740;2023-04-01T11:31:28;10.43;;;9.33;;
8480;SDS011;4277;51.354;6.740;2023-04-01T11:44:38;7.63;;;6.87;;
8480;SDS011;4277;51.354;6.740;2023-04-01T11:50:12;6.70;;;6.10;;
8480;SDS011;4277;51.354;6.740;2023-04-01T11:55:28;6.87;;;6.27;;
8480;SDS011;4277;51.354;6.740;2023-04-01T12:00:43;7.27;;;6.40;;
8480;SDS011;4277;51.354;6.740;2023-04-01T12:03:26;6.77;;;6.17;;
8480;SDS011;4277;51.354;6.740;2023-04-01T12:11:17;6.63;;;5.93;;
8480;SDS011;4277;51.354;6.740;2023-04-01T12:13:48;6.70;;;6.00;;
8480;SDS011;4277;51.354;6.740;2023-04-01T12:18:47;7.43;;;6.23;;
8480;SDS011;4277;51.354;6.740;2023-04-01T12:21:22;8.70;;;7.80;;
8480;SDS011;4277;51.354;6.740;2023-04-01T12:29:02;15.03;;;7.67;;
8480;SDS011;4277;51.354;6.740;2023-04-01T12:31:42;8.47;;;7.53;;
8480;SDS011;4277;51.354;6.740;2023-04-01T12:39:51;9.10;;;8.20;;
8480;SDS011;4277;51.354;6.740;2023-04-01T12:55:41;8.37;;;7.53;;
8480;SDS011;4277;51.354;6.740;2023-04-01T12:58:30;8.07;;;7.27;;
8480;SDS011;4277;51.354;6.740;2023-04-01T13:08:48;8.37;;;7.17;;
8480;SDS011;4277;51.354;6.740;2023-04-01T13:11:20;8.37;;;6.97;;
8480;SDS011;4277;51.354;6.740;2023-04-01T13:13:55;8.17;;;7.00;;
8480;SDS011;4277;51.354;6.740;2023-04-01T13:16:26;7.93;;;6.47;;
8480;SDS011;4277;51.354;6.740;2023-04-01T13:19:36;7.20;;;6.50;;
8480;SDS011;4277;51.354;6.740;2023-04-01T13:22:16;7.10;;;6.33;;
8480;SDS011;4277;51.354;6.740;2023-04-01T13:24:46;8.73;;;7.00;;
8480;SDS011;4277;51.354;6.740;2023-04-01T13:27:21;6.97;;;6.27;;
8480;SDS011;4277;51.354;6.740;2023-04-01T13:37:47;7.90;;;7.10;;
8480;SDS011;4277;51.354;6.740;2023-04-01T13:40:26;6.70;;;6.00;;
8480;SDS011;4277;51.354;6.740;2023-04-01T13:43:03;6.90;;;6.20;;
8480;SDS011;4277;51.354;6.740;2023-04-01T13:45:46;8.70;;;6.40;;
8480;SDS011;4277;51.354;6.740;2023-04-01T13:56:27;6.73;;;6.03;;
8480;SDS011;4277;51.354;6.740;2023-04-01T14:09:44;6.63;;;5.97;;
8480;SDS011;4277;51.354;6.740;2023-04-01T14:12:29;5.83;;;5.33;;
8480;SDS011;4277;51.354;6.740;2023-04-01T14:15:03;6.10;;;5.50;;
8480;SDS011;4277;51.354;6.740;2023-04-01T14:23:13;6.80;;;6.10;;
8480;SDS011;4277;51.354;6.740;2023-04-01T14:28:37;6.50;;;5.90;;
8480;SDS011;4277;51.354;6.740;2023-04-01T14:31:15;6.90;;;5.93;;
8480;SDS011;4277;51.354;6.740;2023-04-01T14:36:37;5.90;;;5.40;;
8480;SDS011;4277;51.354;6.740;2023-04-01T14:39:11;6.03;;;5.43;;
8480;SDS011;4277;51.354;6.740;2023-04-01T14:41:56;5.70;;;5.10;;
8480;SDS011;4277;51.354;6.740;2023-04-01T14:44:43;5.83;;;5.00;;
8480;SDS011;4277;51.354;6.740;2023-04-01T14:49:47;5.27;;;4.77;;
8480;SDS011;4277;51.354;6.740;2023-04-01T14:52:22;5.97;;;5.43;;
8480;SDS011;4277;51.354;6.740;2023-04-01T14:54:48;4.87;;;4.30;;
8480;SDS011;4277;51.354;6.740;2023-04-01T14:57:25;5.60;;;5.00;;
8480;SDS011;4277;51.354;6.740;2023-04-01T14:59:59;5.90;;;4.50;;
8480;SDS011;4277;51.354;6.740;2023-04-01T15:02:30;4.73;;;4.33;;
8480;SDS011;4277;51.354;6.740;2023-04-01T15:07:30;4.27;;;3.97;;
8480;SDS011;4277;51.354;6.740;2023-04-01T15:10:04;4.30;;;3.90;;
8480;SDS011;4277;51.354;6.740;2023-04-01T15:15:18;4.60;;;4.20;;
8480;SDS011;4277;51.354;6.740;2023-04-01T15:17:55;4.40;;;4.00;;
8480;SDS011;4277;51.354;6.740;2023-04-01T15:23:17;4.90;;;4.50;;
8480;SDS011;4277;51.354;6.740;2023-04-01T15:25:50;4.93;;;4.53;;
8480;SDS011;4277;51.354;6.740;2023-04-01T15:40:58;4.53;;;4.13;;
8480;SDS011;4277;51.354;6.740;2023-04-01T15:46:09;5.20;;;4.60;;
8480;SDS011;4277;51.354;6.740;2023-04-01T15:51:10;4.47;;;3.80;;
8480;SDS011;4277;51.354;6.740;2023-04-01T15:53:44;4.50;;;3.77;;
8480;SDS011;4277;51.354;6.740;2023-04-01T15:56:19;4.00;;;3.60;;
8480;SDS011;4277;51.354;6.740;2023-04-01T16:11:36;4.90;;;4.07;;
8480;SDS011;4277;51.354;6.740;2023-04-01T16:22:04;3.53;;;3.27;;
8480;SDS011;4277;51.354;6.740;2023-04-01T16:34:57;4.47;;;4.07;;
8480;SDS011;4277;51.354;6.740;2023-04-01T16:45:45;4.20;;;3.90;;
8480;SDS011;4277;51.354;6.740;2023-04-01T16:48:15;4.37;;;3.97;;
8480;SDS011;4277;51.354;6.740;2023-04-01T16:50:44;4.47;;;4.10;;
8480;SDS011;4277;51.354;6.740;2023-04-01T16:55:42;4.57;;;3.80;;
8480;SDS011;4277;51.354;6.740;2023-04-01T16:58:10;4.53;;;4.20;;
8480;SDS011;4277;51.354;6.740;2023-04-01T17:00:41;5.03;;;4.63;;
8480;SDS011;4277;51.354;6.740;2023-04-01T17:03:11;4.57;;;4.17;;
8480;SDS011;4277;51.354;6.740;2023-04-01T17:10:56;5.13;;;4.63;;
8480;SDS011;4277;51.354;6.740;2023-04-01T17:13:35;4.70;;;4.30;;
8480;SDS011;4277;51.354;6.740;2023-04-01T17:27:02;5.73;;;5.23;;
8480;SDS011;4277;51.354;6.740;2023-04-01T17:43:17;6.10;;;5.60;;
8480;SDS011;4277;51.354;6.740;2023-04-01T17:45:16;7.43;;;6.13;;
8480;SDS011;4277;51.354;6.740;2023-04-01T17:51:12;6.60;;;5.90;;
8480;SDS011;4277;51.354;6.740;2023-04-01T17:55:43;7.40;;;6.70;;
8480;SDS011;4277;51.354;6.740;2023-04-01T17:58:19;7.40;;;6.70;;
8480;SDS011;4277;51.354;6.740;2023-04-01T18:03:30;8.67;;;6.80;;
8480;SDS011;4277;51.354;6.740;2023-04-01T18:08:44;7.53;;;6.83;;
8480;SDS011;4277;51.354;6.740;2023-04-01T18:13:46;13.93;;;12.53;;
8480;SDS011;4277;51.354;6.740;2023-04-01T18:31:38;9.07;;;8.17;;
8480;SDS011;4277;51.354;6.740;2023-04-01T18:34:14;15.83;;;8.33;;
8480;SDS011;4277;51.354;6.740;2023-04-01T18:39:16;9.93;;;9.00;;
8480;SDS011;4277;51.354;6.740;2023-04-01T18:42:06;11.03;;;9.93;;
8480;SDS011;4277;51.354;6.740;2023-04-01T18:44:43;11.87;;;10.37;;
8480;SDS011;4277;51.354;6.740;2023-04-01T18:52:24;15.30;;;12.77;;
8480;SDS011;4277;51.354;6.740;2023-04-01T18:55:17;13.10;;;11.67;;
8480;SDS011;4277;51.354;6.740;2023-04-01T18:57:54;11.70;;;10.30;;
8480;SDS011;4277;51.354;6.740;2023-04-01T19:00:36;13.53;;;10.30;;
8480;SDS011;4277;51.354;6.740;2023-04-01T19:05:35;10.57;;;9.37;;
8480;SDS011;4277;51.354;6.740;2023-04-01T19:08:16;10.40;;;9.30;;
8480;SDS011;4277;51.354;6.740;2023-04-01T19:13:51;11.10;;;10.00;;
8480;SDS011;4277;51.354;6.740;2023-04-01T19:21:38;10.93;;;9.80;;
8480;SDS011;4277;51.354;6.740;2023-04-01T19:24:14;11.53;;;10.00;;
8480;SDS011;4277;51.354;6.740;2023-04-01T19:26:42;9.70;;;8.70;;
8480;SDS011;4277;51.354;6.740;2023-04-01T19:34:44;8.53;;;7.70;;
8480;SDS011;4277;51.354;6.740;2023-04-01T19:37:27;9.10;;;8.13;;
8480;SDS011;4277;51.354;6.740;2023-04-01T19:47:53;11.37;;;10.17;;
8480;SDS011;4277;51.354;6.740;2023-04-01T19:52:52;11.67;;;10.37;;
8480;SDS011;4277;51.354;6.740;2023-04-01T19:57:54;10.13;;;8.40;;
8480;SDS011;4277;51.354;6.740;2023-04-01T20:00:31;9.03;;;8.13;;
8480;SDS011;4277;51.354;6.740;2023-04-01T20:07:54;7.73;;;7.03;;
8480;SDS011;4277;51.354;6.740;2023-04-01T20:10:32;7.20;;;6.60;;
8480;SDS011;4277;51.354;6.740;2023-04-01T20:15:57;6.70;;;6.10;;
8480;SDS011;4277;51.354;6.740;2023-04-01T20:19:06;7.50;;;6.70;;
8480;SDS011;4277;51.354;6.740;2023-04-01T20:23:44;7.30;;;6.60;;
8480;SDS011;4277;51.354;6.740;2023-04-01T20:26:12;6.40;;;5.90;;
8480;SDS011;4277;51.354;6.740;2023-04-01T20:28:42;6.70;;;6.20;;
8480;SDS011;4277;51.354;6.740;2023-04-01T20:31:12;6.50;;;6.00;;
8480;SDS011;4277;51.354;6.740;2023-04-01T20:44:09;7.30;;;6.70;;
8480;SDS011;4277;51.354;6.740;2023-04-01T20:46:45;8.33;;;6.83;;
8480;SDS011;4277;51.354;6.740;2023-04-01T20:57:05;7.53;;;6.93;;
8480;SDS011;4277;51.354;6.740;2023-04-01T21:15:09;5.90;;;5.37;;
8480;SDS011;4277;51.354;6.740;2023-04-01T21:17:38;4.63;;;4.30;;
8480;SDS011;4277;51.354;6.740;2023-04-01T21:20:13;4.37;;;4.07;;
8480;SDS011;4277;51.354;6.740;2023-04-01T21:25:44;5.47;;;5.03;;
8480;SDS011;4277;51.354;6.740;2023-04-01T21:28:22;5.50;;;5.10;;
8480;SDS011;4277;51.354;6.740;2023-04-01T21:43:35;4.60;;;4.30;;
8480;SDS011;4277;51.354;6.740;2023-04-01T21:49:16;3.63;;;3.43;;
8480;SDS011;4277;51.354;6.740;2023-04-01T22:05:10;3.40;;;3.10;;
8480;SDS011;4277;51.354;6.740;2023-04-01T22:07:18;3.20;;;3.00;;
8480;SDS011;4277;51.354;6.740;2023-04-01T22:09:48;3.37;;;3.00;;
8480;SDS011;4277;51.354;6.740;2023-04-01T22:12:19;2.70;;;2.50;;
8480;SDS011;4277;51.354;6.740;2023-04-01T22:17:32;3.13;;;2.93;;
8480;SDS011;4277;51.354;6.740;2023-04-01T22:32:47;3.63;;;3.33;;
8480;SDS011;4277;51.354;6.740;2023-04-01T22:43:08;3.77;;;3.47;;
8480;SDS011;4277;51.354;6.740;2023-04-01T22:48:26;4.23;;;3.93;;
8480;SDS011;4277;51.354;6.740;2023-04-01T22:55:50;4.70;;;4.30;;
8480;SDS011;4277;51.354;6.740;2023-04-01T22:58:25;4.40;;;4.10;;
8480;SDS011;4277;51.354;6.740;2023-04-01T23:01:05;3.97;;;3.67;;
8480;SDS011;4277;51.354;6.740;2023-04-01T23:03:37;4.10;;;3.80;;
8480;SDS011;4277;51.354;6.740;2023-04-01T23:06:06;3.87;;;3.57;;
8480;SDS011;4277;51.354;6.740;2023-04-01T23:11:54;4.20;;;3.90;;
8480;SDS011;4277;51.354;6.740;2023-04-01T23:13:54;4.10;;;3.70;;
8480;SDS011;4277;51.354;6.740;2023-04-01T23:16:26;4.10;;;3.80;;
8480;SDS011;4277;51.354;6.740;2023-04-01T23:19:02;4.37;;;4.07;;
8480;SDS011;4277;51.354;6.740;2023-04-01T23:21:38;4.07;;;3.77;;
8480;SDS011;4277;51.354;6.740;2023-04-01T23:26:48;4.00;;;3.70;;
8480;SDS011;4277;51.354;6.740;2023-04-01T23:29:17;3.90;;;3.50;;
8480;SDS011;4277;51.354;6.740;2023-04-01T23:31:59;3.70;;;3.40;;
8480;SDS011;4277;51.354;6.740;2023-04-01T23:34:30;3.63;;;3.37;;
8480;SDS011;4277;51.354;6.740;2023-04-01T23:37:04;3.37;;;3.17;;
8480;SDS011;4277;51.354;6.740;2023-04-01T23:42:07;3.70;;;3.40;;
8480;SDS011;4277;51.354;6.740;2023-04-01T23:44:33;3.40;;;3.20;;
8480;SDS011;4277;51.354;6.740;2023-04-01T23:47:00;3.43;;;3.20;;
8480;SDS011;4277;51.354;6.740;2023-04-01T23:49:31;3.63;;;3.33;;
8480;SDS011;4277;51.354;6.740;2023-04-01T23:52:13;3.53;;;3.23;;
8480;SDS011;4277;51.354;6.740;2023-04-01T23:54:44;3.73;;;3.43;;
8480;SDS011;4277;51.354;6.740;2023-04-01T23:57:17;3.40;;;2.97;;
8480;SDS011;4277;51.354;6.740;2023-04-01T23:59:46;3.23;;;3.00;;
